createdAt,value
2018-07-20T00:00:59.353Z,20.83
2018-07-20T00:01:59.335Z,20.77
2018-07-20T00:02:59.319Z,20.82
2018-07-20T00:03:59.314Z,20.86
2018-07-20T00:04:59.298Z,20.77
2018-07-20T00:05:59.284Z,20.70
2018-07-20T00:06:59.269Z,20.66
2018-07-20T00:07:59.298Z,20.58
2018-07-20T00:08:59.245Z,20.56
2018-07-20T00:09:59.232Z,20.56
2018-07-20T00:10:59.222Z,20.60
2018-07-20T00:11:59.207Z,20.56
2018-07-20T00:12:59.199Z,20.52
2018-07-20T00:13:59.183Z,20.56
2018-07-20T00:14:59.170Z,20.63
2018-07-20T00:15:59.160Z,20.63
2018-07-20T00:16:59.152Z,20.56
2018-07-20T00:17:59.131Z,20.55
2018-07-20T00:18:59.121Z,20.53
2018-07-20T00:19:59.112Z,20.48
2018-07-20T00:20:59.093Z,20.53
2018-07-20T00:21:59.231Z,20.44
2018-07-20T00:22:59.084Z,20.39
2018-07-20T00:23:59.068Z,20.44
2018-07-20T00:24:59.132Z,20.53
2018-07-20T00:25:59.032Z,20.59
2018-07-20T00:26:59.020Z,20.56
2018-07-20T00:27:59.006Z,20.58
2018-07-20T00:28:58.994Z,20.59
2018-07-20T00:29:58.979Z,20.53
2018-07-20T00:30:58.970Z,20.59
2018-07-20T00:31:58.956Z,20.55
2018-07-20T00:32:58.942Z,20.58
2018-07-20T00:33:58.947Z,20.67
2018-07-20T00:34:58.919Z,20.64
2018-07-20T00:35:58.906Z,20.71
2018-07-20T00:36:58.893Z,20.77
2018-07-20T00:37:58.880Z,20.75
2018-07-20T00:38:58.868Z,20.74
2018-07-20T00:39:58.855Z,20.80
2018-07-20T00:40:58.840Z,20.88
2018-07-20T00:41:58.840Z,20.90
2018-07-20T00:42:58.817Z,20.85
2018-07-20T00:43:58.807Z,20.89
2018-07-20T00:44:58.793Z,20.88
2018-07-20T00:45:58.896Z,20.83
2018-07-20T00:46:58.769Z,20.88
2018-07-20T00:47:58.754Z,20.89
2018-07-20T00:48:58.807Z,20.83
2018-07-20T00:49:58.727Z,20.85
2018-07-20T00:50:58.717Z,20.89
2018-07-20T00:51:58.756Z,20.82
2018-07-20T00:52:58.691Z,20.80
2018-07-20T00:53:58.680Z,20.75
2018-07-20T00:54:58.682Z,20.71
2018-07-20T00:55:58.653Z,20.78
2018-07-20T00:56:58.645Z,20.73
2018-07-20T00:57:58.628Z,20.78
2018-07-20T00:58:58.615Z,20.68
2018-07-20T00:59:58.604Z,20.66
2018-07-20T01:00:58.589Z,20.63
2018-07-20T01:01:58.578Z,20.68
2018-07-20T01:02:58.564Z,20.53
2018-07-20T01:03:58.548Z,20.59
2018-07-20T01:04:58.672Z,20.63
2018-07-20T01:05:58.533Z,20.59
2018-07-20T01:06:58.511Z,20.55
2018-07-20T01:07:58.497Z,20.63
2018-07-20T01:08:58.486Z,20.50
2018-07-20T01:09:58.472Z,20.37
2018-07-20T01:10:58.463Z,20.50
2018-07-20T01:11:58.448Z,20.42
2018-07-20T01:12:58.444Z,20.37
2018-07-20T01:13:58.427Z,20.24
2018-07-20T01:14:58.415Z,20.21
2018-07-20T01:15:58.394Z,20.22
2018-07-20T01:16:58.389Z,20.21
2018-07-20T01:17:58.371Z,20.15
2018-07-20T01:18:58.361Z,20.18
2018-07-20T01:19:58.351Z,20.08
2018-07-20T01:20:58.385Z,20.07
2018-07-20T01:21:58.322Z,20.03
2018-07-20T01:22:58.311Z,20.08
2018-07-20T01:23:58.294Z,20.04
2018-07-20T01:24:58.281Z,20.03
2018-07-20T01:25:58.271Z,20.08
2018-07-20T01:26:58.255Z,20.04
2018-07-20T01:27:58.240Z,20.04
2018-07-20T01:28:58.314Z,20.07
2018-07-20T01:29:58.215Z,20.04
2018-07-20T01:30:58.202Z,20.07
2018-07-20T01:31:58.289Z,19.92
2018-07-20T01:32:58.176Z,19.96
2018-07-20T01:33:58.165Z,19.92
2018-07-20T01:34:58.148Z,19.96
2018-07-20T01:35:58.139Z,20.02
2018-07-20T01:36:58.121Z,19.96
2018-07-20T01:37:58.112Z,19.93
2018-07-20T01:38:58.099Z,20.00
2018-07-20T01:39:58.091Z,19.99
2018-07-20T01:40:58.071Z,19.99
2018-07-20T01:41:58.059Z,19.96
2018-07-20T01:42:58.045Z,19.97
2018-07-20T01:43:58.030Z,20.00
2018-07-20T01:44:58.026Z,20.00
2018-07-20T01:45:58.006Z,19.96
2018-07-20T01:46:57.993Z,20.04
2018-07-20T01:47:58.079Z,19.97
2018-07-20T01:48:57.966Z,19.99
2018-07-20T01:49:57.957Z,19.99
2018-07-20T01:50:57.942Z,19.97
2018-07-20T01:51:57.938Z,19.90
2018-07-20T01:52:57.912Z,19.79
2018-07-20T01:53:57.900Z,19.94
2018-07-20T01:54:57.886Z,19.94
2018-07-20T01:55:57.872Z,19.92
2018-07-20T01:56:57.859Z,19.96
2018-07-20T01:57:57.846Z,19.93
2018-07-20T01:58:58.655Z,19.81
2018-07-20T01:59:57.821Z,19.84
2018-07-20T02:00:57.816Z,19.82
2018-07-20T02:01:57.797Z,19.82
2018-07-20T02:02:57.782Z,19.78
2018-07-20T02:03:57.840Z,19.81
2018-07-20T02:04:57.753Z,19.77
2018-07-20T02:05:57.741Z,19.63
2018-07-20T02:06:57.788Z,19.59
2018-07-20T02:07:57.717Z,19.57
2018-07-20T02:08:57.701Z,19.71
2018-07-20T02:09:57.692Z,19.60
2018-07-20T02:10:57.678Z,19.63
2018-07-20T02:11:57.671Z,19.64
2018-07-20T02:12:57.652Z,19.53
2018-07-20T02:13:57.643Z,19.48
2018-07-20T02:14:57.621Z,19.45
2018-07-20T02:15:57.609Z,19.48
2018-07-20T02:16:57.597Z,19.39
2018-07-20T02:17:57.588Z,19.26
2018-07-20T02:18:57.569Z,19.44
2018-07-20T02:19:57.554Z,19.30
2018-07-20T02:20:57.545Z,19.29
2018-07-20T02:21:57.528Z,19.30
2018-07-20T02:22:57.515Z,19.30
2018-07-20T02:23:57.500Z,19.20
2018-07-20T02:24:57.495Z,19.15
2018-07-20T02:25:57.474Z,19.12
2018-07-20T02:26:57.461Z,19.17
2018-07-20T02:27:57.448Z,19.08
2018-07-20T02:28:57.435Z,19.01
2018-07-20T02:29:57.424Z,19.08
2018-07-20T02:30:57.453Z,18.98
2018-07-20T02:31:57.393Z,19.05
2018-07-20T02:33:41.253Z,18.96
2018-07-20T02:34:41.237Z,18.97
2018-07-20T02:35:41.222Z,19.01
2018-07-20T02:36:41.213Z,19.05
2018-07-20T02:37:41.197Z,19.05
2018-07-20T02:38:41.182Z,19.05
2018-07-20T02:39:41.172Z,19.04
2018-07-20T02:40:41.156Z,19.08
2018-07-20T02:41:41.150Z,19.07
2018-07-20T02:42:41.126Z,18.94
2018-07-20T02:43:41.131Z,18.85
2018-07-20T02:44:41.101Z,18.97
2018-07-20T02:45:41.087Z,18.96
2018-07-20T02:46:41.073Z,18.91
2018-07-20T02:47:41.213Z,18.86
2018-07-20T02:48:41.046Z,18.86
2018-07-20T02:49:41.034Z,18.85
2018-07-20T02:50:41.124Z,18.89
2018-07-20T02:51:41.004Z,18.92
2018-07-20T02:52:40.990Z,18.94
2018-07-20T02:53:40.984Z,18.89
2018-07-20T02:54:40.964Z,18.91
2018-07-20T02:55:40.951Z,18.88
2018-07-20T02:56:40.936Z,18.85
2018-07-20T02:57:40.924Z,18.92
2018-07-20T02:58:40.911Z,18.94
2018-07-20T02:59:40.896Z,18.88
2018-07-20T03:00:40.897Z,18.91
2018-07-20T03:01:40.867Z,18.94
2018-07-20T03:02:40.855Z,18.89
2018-07-20T03:03:40.857Z,18.83
2018-07-20T03:04:40.826Z,18.86
2018-07-20T03:05:40.810Z,18.83
2018-07-20T03:06:40.898Z,18.82
2018-07-20T03:07:40.785Z,18.78
2018-07-20T03:08:40.768Z,18.74
2018-07-20T03:09:43.381Z,18.76
2018-07-20T03:10:40.742Z,18.76
2018-07-20T03:13:43.289Z,18.73
2018-07-20T03:14:10.063Z,18.71
2018-07-20T03:15:10.147Z,18.73
2018-07-20T03:16:10.033Z,18.66
2018-07-20T03:17:10.023Z,18.73
2018-07-20T03:18:10.110Z,18.71
2018-07-20T03:19:09.996Z,18.61
2018-07-20T03:20:09.978Z,18.66
2018-07-20T03:21:09.973Z,18.67
2018-07-20T03:22:09.957Z,18.68
2018-07-20T03:23:09.938Z,18.68
2018-07-20T03:24:09.922Z,18.73
2018-07-20T03:25:09.907Z,18.66
2018-07-20T03:26:09.942Z,18.70
2018-07-20T03:27:09.879Z,18.68
2018-07-20T03:28:09.868Z,18.66
2018-07-20T03:29:09.864Z,18.64
2018-07-20T03:30:09.850Z,18.64
2018-07-20T03:31:09.822Z,18.61
2018-07-20T03:32:09.807Z,18.61
2018-07-20T03:33:09.798Z,18.57
2018-07-20T03:34:09.780Z,18.60
2018-07-20T03:35:09.767Z,18.63
2018-07-20T03:36:09.753Z,18.60
2018-07-20T03:37:09.738Z,18.60
2018-07-20T03:38:09.725Z,18.63
2018-07-20T03:39:09.724Z,18.60
2018-07-20T03:40:09.695Z,18.58
2018-07-20T03:41:09.682Z,18.55
2018-07-20T03:42:09.774Z,18.52
2018-07-20T03:43:09.664Z,18.57
2018-07-20T03:44:09.641Z,18.53
2018-07-20T03:45:09.624Z,18.53
2018-07-20T03:46:09.609Z,18.53
2018-07-20T03:47:09.595Z,18.55
2018-07-20T03:48:42.803Z,18.51
2018-07-20T03:49:09.568Z,18.55
2018-07-20T03:50:09.556Z,18.57
2018-07-20T03:51:09.541Z,18.57
2018-07-20T03:52:09.571Z,18.53
2018-07-20T03:53:09.515Z,18.52
2018-07-20T03:54:09.497Z,18.57
2018-07-20T03:55:09.485Z,18.57
2018-07-20T03:56:09.477Z,18.52
2018-07-20T03:57:09.454Z,18.55
2018-07-20T03:58:09.441Z,18.63
2018-07-20T03:59:09.427Z,18.61
2018-07-20T04:00:09.422Z,18.57
2018-07-20T04:01:09.399Z,18.66
2018-07-20T04:02:09.392Z,18.71
2018-07-20T04:03:09.372Z,18.76
2018-07-20T04:04:09.358Z,18.79
2018-07-20T04:05:09.355Z,18.83
2018-07-20T04:06:09.332Z,18.85
2018-07-20T04:07:09.320Z,18.85
2018-07-20T04:08:09.304Z,19.00
2018-07-20T04:09:09.289Z,18.91
2018-07-20T04:10:09.299Z,18.88
2018-07-20T04:11:09.258Z,18.86
2018-07-20T04:12:09.253Z,18.82
2018-07-20T04:13:09.233Z,18.86
2018-07-20T04:14:09.343Z,18.91
2018-07-20T04:15:09.201Z,18.88
2018-07-20T04:16:09.190Z,18.86
2018-07-20T04:17:09.175Z,18.89
2018-07-20T04:18:09.161Z,18.94
2018-07-20T04:19:09.147Z,18.96
2018-07-20T04:20:09.141Z,19.04
2018-07-20T04:21:09.120Z,19.12
2018-07-20T04:22:09.116Z,19.05
2018-07-20T04:23:09.090Z,19.09
2018-07-20T04:24:09.081Z,19.09
2018-07-20T04:25:09.117Z,18.94
2018-07-20T04:26:09.056Z,18.97
2018-07-20T04:27:09.037Z,18.92
2018-07-20T04:28:09.025Z,18.91
2018-07-20T04:29:09.012Z,18.89
2018-07-20T04:30:08.994Z,18.86
2018-07-20T04:31:08.992Z,18.83
2018-07-20T04:32:08.970Z,18.82
2018-07-20T04:33:08.952Z,18.86
2018-07-20T04:34:08.942Z,18.96
2018-07-20T04:35:08.925Z,18.83
2018-07-20T04:36:08.915Z,18.85
2018-07-20T04:37:08.895Z,18.88
2018-07-20T04:38:08.975Z,18.91
2018-07-20T04:39:08.869Z,18.98
2018-07-20T04:40:08.854Z,19.04
2018-07-20T04:41:08.867Z,18.96
2018-07-20T04:42:08.829Z,19.04
2018-07-20T04:43:08.816Z,19.17
2018-07-20T04:44:08.801Z,19.16
2018-07-20T04:45:08.788Z,19.19
2018-07-20T04:46:08.775Z,19.29
2018-07-20T04:47:08.757Z,19.20
2018-07-20T04:48:08.746Z,19.30
2018-07-20T04:49:08.731Z,19.42
2018-07-20T04:50:08.718Z,19.45
2018-07-20T04:51:08.708Z,19.45
2018-07-20T04:52:08.696Z,19.42
2018-07-20T04:53:08.677Z,19.52
2018-07-20T04:54:08.743Z,19.42
2018-07-20T04:55:08.650Z,19.52
2018-07-20T04:56:08.647Z,19.55
2018-07-20T04:57:08.621Z,19.62
2018-07-20T04:58:08.608Z,19.75
2018-07-20T04:59:08.598Z,19.71
2018-07-20T05:00:08.598Z,19.85
2018-07-20T05:01:08.570Z,19.85
2018-07-20T05:02:08.557Z,19.77
2018-07-20T05:03:08.554Z,19.79
2018-07-20T05:04:08.528Z,19.74
2018-07-20T05:05:08.517Z,19.92
2018-07-20T05:06:08.514Z,19.94
2018-07-20T05:07:08.488Z,20.08
2018-07-20T05:08:08.476Z,20.19
2018-07-20T05:09:08.463Z,20.17
2018-07-20T05:10:08.546Z,20.26
2018-07-20T05:11:08.435Z,20.26
2018-07-20T05:12:08.472Z,20.30
2018-07-20T05:13:08.419Z,20.24
2018-07-20T05:14:08.395Z,20.24
2018-07-20T05:15:08.386Z,20.34
2018-07-20T05:16:08.381Z,20.34
2018-07-20T05:17:08.365Z,20.27
2018-07-20T05:18:08.485Z,20.37
2018-07-20T05:19:08.333Z,20.48
2018-07-20T05:20:08.321Z,20.53
2018-07-20T05:21:08.305Z,20.37
2018-07-20T05:22:08.302Z,20.19
2018-07-20T05:23:08.277Z,20.02
2018-07-20T05:24:08.324Z,20.02
2018-07-20T05:25:08.258Z,20.03
2018-07-20T05:26:08.253Z,19.94
2018-07-20T05:27:08.232Z,19.97
2018-07-20T05:28:08.213Z,20.10
2018-07-20T05:29:08.204Z,20.07
2018-07-20T05:30:08.188Z,20.15
2018-07-20T05:31:08.178Z,20.18
2018-07-20T05:32:08.165Z,20.17
2018-07-20T05:33:08.149Z,20.18
2018-07-20T05:34:08.142Z,20.03
2018-07-20T05:35:08.141Z,20.04
2018-07-20T05:36:08.117Z,20.11
2018-07-20T05:37:08.148Z,20.03
2018-07-20T05:38:08.102Z,20.12
2018-07-20T05:39:08.082Z,20.08
2018-07-20T05:40:08.072Z,20.21
2018-07-20T05:41:08.047Z,20.32
2018-07-20T05:42:08.035Z,20.37
2018-07-20T05:43:08.022Z,20.49
2018-07-20T05:44:08.019Z,20.55
2018-07-20T05:45:07.997Z,20.98
2018-07-20T05:46:07.998Z,21.60
2018-07-20T05:47:07.973Z,22.37
2018-07-20T05:48:07.960Z,22.89
2018-07-20T05:49:07.966Z,23.49
2018-07-20T05:50:08.053Z,24.07
2018-07-20T05:51:07.924Z,24.46
2018-07-20T05:52:07.910Z,24.62
2018-07-20T05:53:07.896Z,24.47
2018-07-20T05:54:07.893Z,24.40
2018-07-20T05:55:07.876Z,24.55
2018-07-20T05:56:07.873Z,24.79
2018-07-20T05:57:07.859Z,24.97
2018-07-20T05:58:07.842Z,25.43
2018-07-20T05:59:07.832Z,25.62
2018-07-20T06:00:07.820Z,26.13
2018-07-20T06:01:07.818Z,26.29
2018-07-20T06:02:07.800Z,26.42
2018-07-20T06:03:07.793Z,26.51
2018-07-20T06:04:07.844Z,26.88
2018-07-20T06:05:07.780Z,26.89
2018-07-20T06:06:07.913Z,27.10
2018-07-20T06:07:07.790Z,26.27
2018-07-20T06:08:07.766Z,26.07
2018-07-20T06:09:07.740Z,25.73
2018-07-20T06:10:07.729Z,25.92
2018-07-20T06:11:07.726Z,25.66
2018-07-20T06:12:07.709Z,25.85
2018-07-20T06:13:07.700Z,26.03
2018-07-20T06:14:07.850Z,26.26
2018-07-20T06:15:07.686Z,26.33
2018-07-20T06:16:07.680Z,26.18
2018-07-20T06:17:07.668Z,25.54
2018-07-20T06:18:07.670Z,25.24
2018-07-20T06:19:07.652Z,25.41
2018-07-20T06:20:07.645Z,25.77
2018-07-20T06:21:07.637Z,26.22
2018-07-20T06:22:07.628Z,26.04
2018-07-20T06:23:07.619Z,25.98
2018-07-20T06:24:07.612Z,26.06
2018-07-20T06:25:07.602Z,26.41
2018-07-20T06:26:07.603Z,26.83
2018-07-20T06:27:07.591Z,27.22
2018-07-20T06:28:07.582Z,27.58
2018-07-20T06:29:07.572Z,27.41
2018-07-20T06:30:07.598Z,27.41
2018-07-20T06:31:07.568Z,27.19
2018-07-20T06:32:07.552Z,27.00
2018-07-20T06:33:07.547Z,27.10
2018-07-20T06:34:07.537Z,27.29
2018-07-20T06:35:07.535Z,27.52
2018-07-20T06:36:07.531Z,27.20
2018-07-20T06:37:07.636Z,26.56
2018-07-20T06:38:07.513Z,26.19
2018-07-20T06:39:07.516Z,26.15
2018-07-20T06:40:07.550Z,26.04
2018-07-20T06:41:07.496Z,25.92
2018-07-20T06:42:07.487Z,25.81
2018-07-20T06:43:07.482Z,25.24
2018-07-20T06:44:07.477Z,24.71
2018-07-20T06:45:07.479Z,24.43
2018-07-20T06:46:07.475Z,24.28
2018-07-20T06:47:07.469Z,24.44
2018-07-20T06:48:07.458Z,24.55
2018-07-20T06:49:07.456Z,24.69
2018-07-20T06:50:07.444Z,24.99
2018-07-20T06:51:07.438Z,25.44
2018-07-20T06:52:07.440Z,25.59
2018-07-20T06:53:07.537Z,25.41
2018-07-20T06:54:07.417Z,25.59
2018-07-20T06:55:07.412Z,25.62
2018-07-20T06:56:07.420Z,25.73
2018-07-20T06:57:07.405Z,25.67
2018-07-20T06:58:07.395Z,25.68
2018-07-20T06:59:07.399Z,25.92
2018-07-20T07:00:07.386Z,25.96
2018-07-20T07:01:07.376Z,25.67
2018-07-20T07:02:07.398Z,25.56
2018-07-20T07:03:07.365Z,25.63
2018-07-20T07:04:07.360Z,25.46
2018-07-20T07:05:07.367Z,25.30
2018-07-20T07:06:07.356Z,25.29
2018-07-20T07:07:07.346Z,25.14
2018-07-20T07:08:07.341Z,24.99
2018-07-20T07:09:07.334Z,25.41
2018-07-20T07:10:07.330Z,25.49
2018-07-20T07:11:07.332Z,25.55
2018-07-20T07:12:07.321Z,25.76
2018-07-20T07:13:07.325Z,26.03
2018-07-20T07:14:07.315Z,26.15
2018-07-20T07:15:07.369Z,25.93
2018-07-20T07:16:07.302Z,26.03
2018-07-20T07:17:07.302Z,26.18
2018-07-20T07:18:07.291Z,26.23
2018-07-20T07:19:07.295Z,26.33
2018-07-20T07:20:07.288Z,26.60
2018-07-20T07:21:07.278Z,26.76
2018-07-20T07:22:07.304Z,26.85
2018-07-20T07:23:07.269Z,26.83
2018-07-20T07:24:07.420Z,26.76
2018-07-20T07:25:07.262Z,26.59
2018-07-20T07:26:07.256Z,26.45
2018-07-20T07:27:07.304Z,26.18
2018-07-20T07:28:07.251Z,25.83
2018-07-20T07:29:07.271Z,25.91
2018-07-20T07:30:07.243Z,26.11
2018-07-20T07:31:07.240Z,26.23
2018-07-20T07:32:07.250Z,26.41
2018-07-20T07:33:07.240Z,26.56
2018-07-20T07:34:07.236Z,26.52
2018-07-20T07:35:07.229Z,26.56
2018-07-20T07:36:07.224Z,26.13
2018-07-20T07:37:07.231Z,25.86
2018-07-20T07:38:07.219Z,25.63
2018-07-20T07:39:07.215Z,25.58
2018-07-20T07:40:07.216Z,25.49
2018-07-20T07:41:07.210Z,25.51
2018-07-20T07:42:07.238Z,25.41
2018-07-20T07:43:07.204Z,25.37
2018-07-20T07:44:07.194Z,25.55
2018-07-20T07:45:07.190Z,25.63
2018-07-20T07:46:07.187Z,25.66
2018-07-20T07:47:07.189Z,25.62
2018-07-20T07:48:07.178Z,25.63
2018-07-20T07:49:07.177Z,25.61
2018-07-20T07:50:07.170Z,25.73
2018-07-20T07:51:07.162Z,25.88
2018-07-20T07:52:07.165Z,25.91
2018-07-20T07:53:07.225Z,26.15
2018-07-20T07:54:07.161Z,26.29
2018-07-20T07:55:07.178Z,26.66
2018-07-20T07:56:07.224Z,26.73
2018-07-20T07:57:07.128Z,26.70
2018-07-20T07:58:07.129Z,27.03
2018-07-20T07:59:07.117Z,26.93
2018-07-20T08:00:07.117Z,27.11
2018-07-20T08:01:07.111Z,27.11
2018-07-20T08:02:07.110Z,27.10
2018-07-20T08:03:07.124Z,27.04
2018-07-20T08:04:07.092Z,27.03
2018-07-20T08:05:07.086Z,26.81
2018-07-20T08:06:07.081Z,26.39
2018-07-20T08:07:07.077Z,26.22
2018-07-20T08:08:07.081Z,26.01
2018-07-20T08:09:07.067Z,25.86
2018-07-20T08:10:07.279Z,25.67
2018-07-20T08:11:07.056Z,25.62
2018-07-20T08:12:07.052Z,25.62
2018-07-20T08:13:07.063Z,25.49
2018-07-20T08:14:07.246Z,25.59
2018-07-20T08:15:07.044Z,25.63
2018-07-20T08:16:07.036Z,25.74
2018-07-20T08:17:07.043Z,26.06
2018-07-20T08:18:07.025Z,26.13
2018-07-20T08:19:07.026Z,26.30
2018-07-20T08:20:07.014Z,26.42
2018-07-20T08:21:07.009Z,26.60
2018-07-20T08:22:07.005Z,26.70
2018-07-20T08:23:07.007Z,26.92
2018-07-20T08:24:06.995Z,27.03
2018-07-20T08:25:06.994Z,27.34
2018-07-20T08:26:06.985Z,27.34
2018-07-20T08:27:06.983Z,27.41
2018-07-20T08:28:06.977Z,27.53
2018-07-20T08:29:06.970Z,27.55
2018-07-20T08:30:06.972Z,27.60
2018-07-20T08:31:06.959Z,27.75
2018-07-20T08:32:06.955Z,27.73
2018-07-20T08:33:06.945Z,27.82
2018-07-20T08:34:06.957Z,27.85
2018-07-20T08:35:06.941Z,27.83
2018-07-20T08:36:06.929Z,27.85
2018-07-20T08:37:06.922Z,27.50
2018-07-20T08:38:06.924Z,27.19
2018-07-20T08:39:06.913Z,27.40
2018-07-20T08:40:06.916Z,27.55
2018-07-20T08:41:06.962Z,27.82
2018-07-20T08:42:06.893Z,27.94
2018-07-20T08:43:06.906Z,28.10
2018-07-20T08:44:06.891Z,27.78
2018-07-20T08:45:06.876Z,27.29
2018-07-20T08:46:06.865Z,27.34
2018-07-20T08:47:06.862Z,27.50
2018-07-20T08:48:06.853Z,27.66
2018-07-20T08:49:06.845Z,27.72
2018-07-20T08:50:06.846Z,28.08
2018-07-20T08:51:06.836Z,28.22
2018-07-20T08:52:06.839Z,28.20
2018-07-20T08:53:06.823Z,28.45
2018-07-20T08:54:06.916Z,28.50
2018-07-20T08:55:06.811Z,28.49
2018-07-20T08:56:06.800Z,28.50
2018-07-20T08:57:06.803Z,28.57
2018-07-20T08:58:06.791Z,28.47
2018-07-20T08:59:06.829Z,28.40
2018-07-20T09:00:06.824Z,28.28
2018-07-20T09:01:06.883Z,28.52
2018-07-20T09:02:06.777Z,28.75
2018-07-20T09:03:06.756Z,28.97
2018-07-20T09:04:06.751Z,28.92
2018-07-20T09:05:06.753Z,29.06
2018-07-20T09:06:06.761Z,29.05
2018-07-20T09:07:06.733Z,28.94
2018-07-20T09:08:06.731Z,28.82
2018-07-20T09:09:06.721Z,28.47
2018-07-20T09:10:06.714Z,28.34
2018-07-20T09:11:06.712Z,28.25
2018-07-20T09:12:06.719Z,28.31
2018-07-20T09:13:06.697Z,28.28
2018-07-20T09:14:06.705Z,28.10
2018-07-20T09:15:06.690Z,28.41
2018-07-20T09:16:06.680Z,28.59
2018-07-20T09:17:06.675Z,28.89
2018-07-20T09:18:06.684Z,28.92
2018-07-20T09:19:06.666Z,29.03
2018-07-20T09:20:06.659Z,28.92
2018-07-20T09:21:06.705Z,29.13
2018-07-20T09:22:06.644Z,29.24
2018-07-20T09:23:06.640Z,29.30
2018-07-20T09:24:06.639Z,29.61
2018-07-20T09:25:06.629Z,29.76
2018-07-20T09:26:06.627Z,29.94
2018-07-20T09:27:06.626Z,30.16
2018-07-20T09:28:06.620Z,30.02
2018-07-20T09:29:06.604Z,29.98
2018-07-20T09:30:06.698Z,29.83
2018-07-20T09:31:06.592Z,29.84
2018-07-20T09:32:06.589Z,29.92
2018-07-20T09:33:06.592Z,30.06
2018-07-20T09:34:06.642Z,29.81
2018-07-20T09:35:06.595Z,29.42
2018-07-20T09:36:06.568Z,29.34
2018-07-20T09:37:06.560Z,29.43
2018-07-20T09:38:06.558Z,29.28
2018-07-20T09:39:06.550Z,29.05
2018-07-20T09:40:06.556Z,28.97
2018-07-20T09:41:06.542Z,29.05
2018-07-20T09:42:06.547Z,29.30
2018-07-20T09:43:06.539Z,29.46
2018-07-20T09:44:06.543Z,29.65
2018-07-20T09:45:06.527Z,30.01
2018-07-20T09:46:06.513Z,30.02
2018-07-20T09:47:06.519Z,30.56
2018-07-20T09:48:06.506Z,31.02
2018-07-20T09:49:06.503Z,31.20
2018-07-20T09:50:06.901Z,31.50
2018-07-20T09:51:06.507Z,31.72
2018-07-20T09:52:06.503Z,31.97
2018-07-20T09:53:06.489Z,32.09
2018-07-20T09:54:06.482Z,32.35
2018-07-20T09:55:06.496Z,32.73
2018-07-20T09:56:06.476Z,33.04
2018-07-20T09:57:06.471Z,33.10
2018-07-20T09:58:06.477Z,33.40
2018-07-20T09:59:06.471Z,33.38
2018-07-20T10:00:06.464Z,33.48
2018-07-20T10:01:06.453Z,33.76
2018-07-20T10:02:06.452Z,34.00
2018-07-20T10:03:06.454Z,34.29
2018-07-20T10:04:06.571Z,34.40
2018-07-20T10:05:06.532Z,34.11
2018-07-20T10:06:06.439Z,34.26
2018-07-20T10:07:06.437Z,34.38
2018-07-20T10:08:06.441Z,34.19
2018-07-20T10:09:06.434Z,34.13
2018-07-20T10:10:06.433Z,34.22
2018-07-20T10:11:06.429Z,34.24
2018-07-20T10:12:06.433Z,34.03
2018-07-20T10:13:06.426Z,33.89
2018-07-20T10:14:06.423Z,34.10
2018-07-20T10:15:06.426Z,34.62
2018-07-20T10:16:06.430Z,35.12
2018-07-20T10:17:06.492Z,35.08
2018-07-20T10:18:06.423Z,35.12
2018-07-20T10:19:06.493Z,35.10
2018-07-20T10:20:06.422Z,35.53
2018-07-20T10:21:06.423Z,35.50
2018-07-20T10:22:06.423Z,35.59
2018-07-20T10:23:06.426Z,35.61
2018-07-20T10:24:06.429Z,35.93
2018-07-20T10:25:06.427Z,35.82
2018-07-20T10:26:06.440Z,36.08
2018-07-20T10:27:06.482Z,35.94
2018-07-20T10:28:06.439Z,35.93
2018-07-20T10:29:06.449Z,36.09
2018-07-20T10:30:06.492Z,35.63
2018-07-20T10:31:06.453Z,35.61
2018-07-20T10:32:06.456Z,35.66
2018-07-20T10:33:06.453Z,35.71
2018-07-20T10:34:06.457Z,35.94
2018-07-20T10:35:06.461Z,35.49
2018-07-20T10:36:06.466Z,35.69
2018-07-20T10:37:06.473Z,35.78
2018-07-20T10:38:06.478Z,35.93
2018-07-20T10:39:06.483Z,36.01
2018-07-20T10:40:06.635Z,36.22
2018-07-20T10:41:06.499Z,36.08
2018-07-20T10:42:06.493Z,35.87
2018-07-20T10:43:06.521Z,36.05
2018-07-20T10:44:06.504Z,36.17
2018-07-20T10:45:06.711Z,36.20
2018-07-20T10:46:06.530Z,36.06
2018-07-20T10:47:06.528Z,35.91
2018-07-20T10:48:06.526Z,35.97
2018-07-20T10:49:06.533Z,35.84
2018-07-20T10:50:06.534Z,35.66
2018-07-20T10:51:06.551Z,35.63
2018-07-20T10:52:06.569Z,35.60
2018-07-20T10:53:06.554Z,34.93
2018-07-20T10:54:06.566Z,34.75
2018-07-20T10:55:06.564Z,34.69
2018-07-20T10:56:06.570Z,34.73
2018-07-20T10:57:06.579Z,34.48
2018-07-20T10:58:06.643Z,34.43
2018-07-20T10:59:06.589Z,34.22
2018-07-20T11:00:06.597Z,33.92
2018-07-20T11:01:06.600Z,33.67
2018-07-20T11:02:06.601Z,33.44
2018-07-20T11:03:06.608Z,33.35
2018-07-20T11:04:06.616Z,33.40
2018-07-20T11:05:06.618Z,33.29
2018-07-20T11:06:06.623Z,33.31
2018-07-20T11:07:06.626Z,33.55
2018-07-20T11:08:06.740Z,33.70
2018-07-20T11:09:06.630Z,33.91
2018-07-20T11:10:06.635Z,34.06
2018-07-20T11:11:06.637Z,34.33
2018-07-20T11:12:06.641Z,34.79
2018-07-20T11:13:06.644Z,35.04
2018-07-20T11:14:06.647Z,35.08
2018-07-20T11:15:06.656Z,35.31
2018-07-20T11:16:06.657Z,35.50
2018-07-20T11:17:06.665Z,35.41
2018-07-20T11:18:06.845Z,35.57
2018-07-20T11:19:06.680Z,35.27
2018-07-20T11:20:06.690Z,35.15
2018-07-20T11:21:06.677Z,35.07
2018-07-20T11:22:06.686Z,35.16
2018-07-20T11:23:06.686Z,34.73
2018-07-20T11:24:06.699Z,34.51
2018-07-20T11:25:06.696Z,34.33
2018-07-20T11:26:06.727Z,33.81
2018-07-20T11:27:06.713Z,33.70
2018-07-20T11:28:06.744Z,34.04
2018-07-20T11:29:06.713Z,33.98
2018-07-20T11:30:06.719Z,34.00
2018-07-20T11:31:06.855Z,33.91
2018-07-20T11:32:06.727Z,33.89
2018-07-20T11:33:06.732Z,33.85
2018-07-20T11:34:06.746Z,33.58
2018-07-20T11:35:06.740Z,33.15
2018-07-20T11:36:06.842Z,32.93
2018-07-20T11:37:06.767Z,32.59
2018-07-20T11:38:06.753Z,32.42
2018-07-20T11:39:06.770Z,32.61
2018-07-20T11:40:06.771Z,32.45
2018-07-20T11:41:06.762Z,32.44
2018-07-20T11:42:06.772Z,32.48
2018-07-20T11:43:06.775Z,32.76
2018-07-20T11:44:06.776Z,32.93
2018-07-20T11:45:06.787Z,33.33
2018-07-20T11:46:06.783Z,33.44
2018-07-20T11:47:06.792Z,33.22
2018-07-20T11:48:06.787Z,33.38
2018-07-20T11:49:06.926Z,33.40
2018-07-20T11:50:06.791Z,33.50
2018-07-20T11:51:06.807Z,32.91
2018-07-20T11:52:09.416Z,32.29
2018-07-20T11:53:06.796Z,31.69
2018-07-20T11:54:06.801Z,31.35
2018-07-20T11:55:06.814Z,31.20
2018-07-20T11:56:06.802Z,31.48
2018-07-20T11:57:06.802Z,31.77
2018-07-20T11:58:06.811Z,32.05
2018-07-20T11:59:06.801Z,32.08
2018-07-20T12:00:06.825Z,32.20
2018-07-20T12:01:06.803Z,32.35
2018-07-20T12:02:06.802Z,32.45
2018-07-20T12:03:06.800Z,32.61
2018-07-20T12:04:06.811Z,32.51
2018-07-20T12:05:06.798Z,32.72
2018-07-20T12:06:06.812Z,32.51
2018-07-20T12:07:06.808Z,32.19
2018-07-20T12:08:06.805Z,32.08
2018-07-20T12:09:06.803Z,31.73
2018-07-20T12:10:06.792Z,31.79
2018-07-20T12:11:06.793Z,31.23
2018-07-20T12:12:06.803Z,31.11
2018-07-20T12:13:06.792Z,31.11
2018-07-20T12:14:06.809Z,31.26
2018-07-20T12:15:06.787Z,31.39
2018-07-20T12:16:06.785Z,31.37
2018-07-20T12:17:06.784Z,31.47
2018-07-20T12:18:06.783Z,31.69
2018-07-20T12:19:06.780Z,31.74
2018-07-20T12:20:06.780Z,31.77
2018-07-20T12:21:06.775Z,31.85
2018-07-20T12:22:06.772Z,31.87
2018-07-20T12:23:06.769Z,32.00
2018-07-20T12:24:06.768Z,32.24
2018-07-20T12:25:06.781Z,32.22
2018-07-20T12:26:06.821Z,32.31
2018-07-20T12:27:06.765Z,32.29
2018-07-20T12:28:06.805Z,32.05
2018-07-20T12:29:06.753Z,32.11
2018-07-20T12:30:06.753Z,32.30
2018-07-20T12:31:06.749Z,32.54
2018-07-20T12:32:06.752Z,32.59
2018-07-20T12:33:06.761Z,32.56
2018-07-20T12:34:06.796Z,32.39
2018-07-20T12:35:06.741Z,32.04
2018-07-20T12:36:06.868Z,31.77
2018-07-20T12:37:06.750Z,31.67
2018-07-20T12:38:06.731Z,31.48
2018-07-20T12:39:06.729Z,31.66
2018-07-20T12:40:06.726Z,31.77
2018-07-20T12:41:06.726Z,31.36
2018-07-20T12:42:06.736Z,31.44
2018-07-20T12:43:06.723Z,31.64
2018-07-20T12:44:06.719Z,31.72
2018-07-20T12:45:07.033Z,32.01
2018-07-20T12:46:06.709Z,32.30
2018-07-20T12:47:06.717Z,32.54
2018-07-20T12:48:06.711Z,32.30
2018-07-20T12:49:06.903Z,31.74
2018-07-20T12:50:06.776Z,31.22
2018-07-20T12:51:06.697Z,31.23
2018-07-20T12:52:06.689Z,31.29
2018-07-20T12:53:06.697Z,31.67
2018-07-20T12:54:06.694Z,31.67
2018-07-20T12:55:06.681Z,31.74